PRF420 HTDA-HTZA
Flight info
| Callsign | PRF420 |
|---|---|
| Flight time | 0h 28m |
| Altitude | 7000 |
| Route | EGTUT/N0273F060 |
| Aircraft | AT76/M-SDFGIRY/S |
Departure
| Time | 2026-05-06 13:44 |
|---|---|
| Airport | Julius Nyerere International Airport (HTDA) |
Arrival
| Time | 2026-05-06 14:12 |
|---|---|
| Airport | Abeid Amani Karume International Airport (HTZA) |
| Time | Latitude | Longitude | Altitude | Speed | Heading |
|---|---|---|---|---|---|
| 2026-05-06 13:22 | -6.86873 | 39.20626 | 176 ft | 0 kts | 203° |
| 2026-05-06 13:30 | -6.86873 | 39.20627 | 176 ft | 0 kts | 203° |
| 2026-05-06 13:33 | -6.86871 | 39.20627 | 176 ft | 0 kts | 203° |
| 2026-05-06 13:33 | -6.86869 | 39.20628 | 176 ft | 1 kts | 203° |
| 2026-05-06 13:33 | -6.86864 | 39.20630 | 176 ft | 1 kts | 203° |
| 2026-05-06 13:33 | -6.86861 | 39.20632 | 176 ft | 1 kts | 203° |
| 2026-05-06 13:34 | -6.86857 | 39.20633 | 176 ft | 1 kts | 203° |
| 2026-05-06 13:34 | -6.86853 | 39.20635 | 176 ft | 1 kts | 203° |
| 2026-05-06 13:34 | -6.86849 | 39.20637 | 176 ft | 1 kts | 203° |
| 2026-05-06 13:34 | -6.86845 | 39.20638 | 176 ft | 1 kts | 203° |
| 2026-05-06 13:35 | -6.86839 | 39.20641 | 176 ft | 1 kts | 203° |
| 2026-05-06 13:35 | -6.86832 | 39.20644 | 176 ft | 1 kts | 203° |
| 2026-05-06 13:35 | -6.86826 | 39.20646 | 176 ft | 1 kts | 188° |
| 2026-05-06 13:35 | -6.86818 | 39.20647 | 176 ft | 1 kts | 168° |
| 2026-05-06 13:36 | -6.86811 | 39.20645 | 176 ft | 1 kts | 144° |
| 2026-05-06 13:36 | -6.86806 | 39.20640 | 176 ft | 1 kts | 117° |
| 2026-05-06 13:36 | -6.86804 | 39.20637 | 176 ft | 0 kts | 112° |
| 2026-05-06 13:37 | -6.86805 | 39.20639 | 176 ft | 1 kts | 112° |
| 2026-05-06 13:37 | -6.86817 | 39.20666 | 176 ft | 8 kts | 113° |
| 2026-05-06 13:37 | -6.86841 | 39.20725 | 176 ft | 10 kts | 112° |
| 2026-05-06 13:38 | -6.86876 | 39.20809 | 176 ft | 16 kts | 113° |
| 2026-05-06 13:38 | -6.86943 | 39.20869 | 176 ft | 15 kts | 183° |
| 2026-05-06 13:38 | -6.87037 | 39.20791 | 176 ft | 20 kts | 224° |
| 2026-05-06 13:38 | -6.87134 | 39.20694 | 176 ft | 21 kts | 226° |
| 2026-05-06 13:39 | -6.87231 | 39.20600 | 176 ft | 20 kts | 222° |
| 2026-05-06 13:39 | -6.87318 | 39.20510 | 176 ft | 18 kts | 222° |
| 2026-05-06 13:39 | -6.87397 | 39.20429 | 175 ft | 17 kts | 225° |
| 2026-05-06 13:39 | -6.87491 | 39.20338 | 175 ft | 16 kts | 227° |
| 2026-05-06 13:40 | -6.87582 | 39.20241 | 175 ft | 22 kts | 225° |
| 2026-05-06 13:40 | -6.87672 | 39.20147 | 175 ft | 19 kts | 225° |
| 2026-05-06 13:40 | -6.87773 | 39.20048 | 175 ft | 20 kts | 222° |
| 2026-05-06 13:40 | -6.87850 | 39.19967 | 175 ft | 13 kts | 228° |
| 2026-05-06 13:41 | -6.87919 | 39.19897 | 175 ft | 15 kts | 224° |
| 2026-05-06 13:41 | -6.88008 | 39.19806 | 175 ft | 21 kts | 224° |
| 2026-05-06 13:41 | -6.88091 | 39.19722 | 175 ft | 16 kts | 224° |
| 2026-05-06 13:41 | -6.88160 | 39.19687 | 175 ft | 14 kts | 182° |
| 2026-05-06 13:42 | -6.88235 | 39.19725 | 175 ft | 12 kts | 128° |
| 2026-05-06 13:42 | -6.88254 | 39.19813 | 175 ft | 7 kts | 67° |
| 2026-05-06 13:42 | -6.88227 | 39.19842 | 175 ft | 0 kts | 44° |
| 2026-05-06 13:43 | -6.88170 | 39.19901 | 175 ft | 36 kts | 43° |
| 2026-05-06 13:43 | -6.87851 | 39.20218 | 176 ft | 91 kts | 45° |
| 2026-05-06 13:43 | -6.87303 | 39.20764 | 177 ft | 129 kts | 45° |
| 2026-05-06 13:43 | -6.86633 | 39.21408 | 456 ft | 131 kts | 49° |
| 2026-05-06 13:44 | -6.86182 | 39.21833 | 680 ft | 134 kts | 46° |
| 2026-05-06 13:44 | -6.85427 | 39.22420 | 991 ft | 143 kts | 38° |
| 2026-05-06 13:44 | -6.84553 | 39.22994 | 1305 ft | 152 kts | 34° |
| 2026-05-06 13:44 | -6.83512 | 39.23428 | 1525 ft | 169 kts | 11° |
| 2026-05-06 13:45 | -6.82324 | 39.23520 | 1870 ft | 173 kts | 4° |
| 2026-05-06 13:45 | -6.79581 | 39.23567 | 1895 ft | 216 kts | 7° |
| 2026-05-06 13:45 | -6.78058 | 39.23722 | 1991 ft | 224 kts | 8° |
| 2026-05-06 13:46 | -6.76470 | 39.23885 | 1985 ft | 235 kts | 7° |
| 2026-05-06 13:46 | -6.74816 | 39.24017 | 1997 ft | 242 kts | 5° |
| 2026-05-06 13:46 | -6.73115 | 39.24113 | 1992 ft | 246 kts | 4° |
| 2026-05-06 13:46 | -6.71392 | 39.24211 | 1970 ft | 250 kts | 4° |
| 2026-05-06 13:47 | -6.69658 | 39.24310 | 1956 ft | 252 kts | 5° |
| 2026-05-06 13:47 | -6.67895 | 39.24410 | 1961 ft | 254 kts | 5° |
| 2026-05-06 13:47 | -6.66140 | 39.24506 | 2095 ft | 250 kts | 5° |
| 2026-05-06 13:47 | -6.64405 | 39.24594 | 2127 ft | 251 kts | 5° |
| 2026-05-06 13:48 | -6.62661 | 39.24681 | 2251 ft | 247 kts | 5° |
| 2026-05-06 13:48 | -6.61005 | 39.24778 | 2567 ft | 236 kts | 6° |
| 2026-05-06 13:48 | -6.59382 | 39.24868 | 2922 ft | 227 kts | 6° |
| 2026-05-06 13:49 | -6.57991 | 39.24954 | 3234 ft | 221 kts | 5° |
| 2026-05-06 13:49 | -6.56472 | 39.25042 | 3570 ft | 216 kts | 5° |
| 2026-05-06 13:49 | -6.54979 | 39.25132 | 3915 ft | 213 kts | 6° |
| 2026-05-06 13:50 | -6.53528 | 39.25219 | 4245 ft | 210 kts | 6° |
| 2026-05-06 13:50 | -6.52057 | 39.25315 | 4593 ft | 208 kts | 6° |
| 2026-05-06 13:50 | -6.50624 | 39.25350 | 4802 ft | 213 kts | 354° |
| 2026-05-06 13:50 | -6.49175 | 39.24896 | 4856 ft | 225 kts | 334° |
| 2026-05-06 13:51 | -6.47853 | 39.24004 | 4890 ft | 234 kts | 318° |
| 2026-05-06 13:51 | -6.46779 | 39.22747 | 4903 ft | 241 kts | 302° |
| 2026-05-06 13:51 | -6.46048 | 39.21211 | 4900 ft | 245 kts | 287° |
| 2026-05-06 13:51 | -6.45327 | 39.19656 | 4913 ft | 247 kts | 310° |
| 2026-05-06 13:52 | -6.43908 | 39.18745 | 4916 ft | 250 kts | 345° |
| 2026-05-06 13:52 | -6.42187 | 39.18740 | 4921 ft | 249 kts | 13° |
| 2026-05-06 13:52 | -6.40487 | 39.19142 | 4921 ft | 253 kts | 15° |
| 2026-05-06 13:52 | -6.38756 | 39.19511 | 4912 ft | 257 kts | 11° |
| 2026-05-06 13:53 | -6.36974 | 39.19730 | 4910 ft | 259 kts | 6° |
| 2026-05-06 13:53 | -6.35165 | 39.19767 | 4913 ft | 260 kts | 360° |
| 2026-05-06 13:53 | -6.33355 | 39.19643 | 4910 ft | 262 kts | 354° |
| 2026-05-06 13:53 | -6.31561 | 39.19316 | 4911 ft | 263 kts | 347° |
| 2026-05-06 13:54 | -6.29804 | 39.18805 | 4920 ft | 263 kts | 342° |
| 2026-05-06 13:54 | -6.28067 | 39.18214 | 4940 ft | 266 kts | 342° |
| 2026-05-06 13:54 | -6.26305 | 39.17612 | 4927 ft | 269 kts | 342° |
| 2026-05-06 13:54 | -6.24524 | 39.17015 | 4914 ft | 270 kts | 342° |
| 2026-05-06 13:55 | -6.22731 | 39.16450 | 4897 ft | 270 kts | 343° |
| 2026-05-06 13:55 | -6.20940 | 39.15890 | 4881 ft | 269 kts | 343° |
| 2026-05-06 13:55 | -6.19161 | 39.15331 | 4897 ft | 268 kts | 343° |
| 2026-05-06 13:55 | -6.17384 | 39.14775 | 4896 ft | 267 kts | 343° |
| 2026-05-06 13:56 | -6.15615 | 39.14223 | 4907 ft | 266 kts | 343° |
| 2026-05-06 13:56 | -6.13841 | 39.13665 | 4914 ft | 267 kts | 343° |
| 2026-05-06 13:56 | -6.12072 | 39.13108 | 4914 ft | 266 kts | 343° |
| 2026-05-06 13:56 | -6.10290 | 39.12552 | 4743 ft | 273 kts | 343° |
| 2026-05-06 13:57 | -6.08440 | 39.11975 | 4382 ft | 280 kts | 343° |
| 2026-05-06 13:57 | -6.06591 | 39.11393 | 4155 ft | 277 kts | 343° |
| 2026-05-06 13:57 | -6.04722 | 39.11150 | 3888 ft | 272 kts | 9° |
| 2026-05-06 13:57 | -6.03011 | 39.11874 | 3617 ft | 268 kts | 41° |
| 2026-05-06 13:58 | -6.01938 | 39.13353 | 3348 ft | 262 kts | 72° |
| 2026-05-06 13:58 | -6.01794 | 39.15131 | 3051 ft | 255 kts | 102° |
| 2026-05-06 13:58 | -6.02140 | 39.16847 | 2691 ft | 248 kts | 103° |
| 2026-05-06 13:58 | -6.02459 | 39.18476 | 2733 ft | 224 kts | 108° |
| 2026-05-06 13:59 | -6.03357 | 39.19687 | 2647 ft | 214 kts | 145° |
| 2026-05-06 13:59 | -6.04583 | 39.20332 | 2560 ft | 184 kts | 157° |
| 2026-05-06 13:59 | -6.05715 | 39.20713 | 2482 ft | 160 kts | 162° |
| 2026-05-06 13:59 | -6.06737 | 39.21023 | 2436 ft | 150 kts | 161° |
| 2026-05-06 14:00 | -6.07754 | 39.21190 | 2221 ft | 152 kts | 178° |
| 2026-05-06 14:00 | -6.08788 | 39.21130 | 2175 ft | 141 kts | 180° |
| 2026-05-06 14:00 | -6.09778 | 39.21164 | 2042 ft | 146 kts | 174° |
| 2026-05-06 14:00 | -6.10794 | 39.21238 | 1941 ft | 146 kts | 171° |
| 2026-05-06 14:01 | -6.11805 | 39.21386 | 1924 ft | 144 kts | 171° |
| 2026-05-06 14:01 | -6.12810 | 39.21485 | 1890 ft | 148 kts | 173° |
| 2026-05-06 14:01 | -6.13826 | 39.21578 | 1760 ft | 153 kts | 171° |
| 2026-05-06 14:01 | -6.14901 | 39.21711 | 1538 ft | 158 kts | 170° |
| 2026-05-06 14:02 | -6.15886 | 39.21811 | 1577 ft | 132 kts | 177° |
| 2026-05-06 14:02 | -6.16786 | 39.21903 | 1353 ft | 127 kts | 171° |
| 2026-05-06 14:02 | -6.17650 | 39.21982 | 1056 ft | 128 kts | 169° |
| 2026-05-06 14:02 | -6.18530 | 39.22076 | 823 ft | 125 kts | 171° |
| 2026-05-06 14:03 | -6.19412 | 39.22201 | 516 ft | 123 kts | 173° |
| 2026-05-06 14:03 | -6.20263 | 39.22298 | 302 ft | 118 kts | 173° |
| 2026-05-06 14:03 | -6.21074 | 39.22383 | 114 ft | 114 kts | 169° |
| 2026-05-06 14:03 | -6.21837 | 39.22470 | 279 ft | 121 kts | 168° |
| 2026-05-06 14:04 | -6.22781 | 39.22615 | 485 ft | 144 kts | 172° |
| 2026-05-06 14:04 | -6.23828 | 39.22778 | 648 ft | 160 kts | 166° |
| 2026-05-06 14:04 | -6.24869 | 39.23019 | 1139 ft | 155 kts | 164° |
| 2026-05-06 14:04 | -6.25964 | 39.23297 | 1330 ft | 168 kts | 163° |
| 2026-05-06 14:05 | -6.27132 | 39.23581 | 1520 ft | 176 kts | 172° |
| 2026-05-06 14:05 | -6.28327 | 39.23213 | 1739 ft | 189 kts | 208° |
| 2026-05-06 14:05 | -6.29417 | 39.22431 | 1949 ft | 196 kts | 225° |
| 2026-05-06 14:05 | -6.29917 | 39.21141 | 2143 ft | 208 kts | 269° |
| 2026-05-06 14:06 | -6.29671 | 39.19717 | 2261 ft | 205 kts | 282° |
| 2026-05-06 14:06 | -6.29315 | 39.18333 | 2333 ft | 203 kts | 283° |
| 2026-05-06 14:06 | -6.28921 | 39.16964 | 2373 ft | 205 kts | 284° |
| 2026-05-06 14:06 | -6.28503 | 39.15585 | 2394 ft | 206 kts | 285° |
| 2026-05-06 14:07 | -6.28084 | 39.14209 | 2400 ft | 206 kts | 285° |
| 2026-05-06 14:07 | -6.27558 | 39.12877 | 2294 ft | 211 kts | 303° |
| 2026-05-06 14:07 | -6.26370 | 39.11935 | 2042 ft | 220 kts | 336° |
| 2026-05-06 14:07 | -6.24986 | 39.11604 | 2032 ft | 191 kts | 355° |
| 2026-05-06 14:08 | -6.23637 | 39.11474 | 1713 ft | 201 kts | 355° |
| 2026-05-06 14:08 | -6.22218 | 39.11323 | 1437 ft | 200 kts | 356° |
| 2026-05-06 14:08 | -6.20901 | 39.11210 | 1332 ft | 185 kts | 5° |
| 2026-05-06 14:08 | -6.19791 | 39.11632 | 1213 ft | 166 kts | 49° |
| 2026-05-06 14:09 | -6.19321 | 39.12609 | 1386 ft | 141 kts | 81° |
| 2026-05-06 14:09 | -6.19145 | 39.13560 | 1432 ft | 142 kts | 81° |
| 2026-05-06 14:09 | -6.18866 | 39.14531 | 1498 ft | 144 kts | 71° |
| 2026-05-06 14:09 | -6.18468 | 39.15458 | 1545 ft | 147 kts | 70° |
| 2026-05-06 14:10 | -6.18032 | 39.16408 | 1522 ft | 152 kts | 69° |
| 2026-05-06 14:10 | -6.17577 | 39.17371 | 1559 ft | 153 kts | 67° |
| 2026-05-06 14:10 | -6.17158 | 39.18359 | 1564 ft | 151 kts | 79° |
| 2026-05-06 14:10 | -6.17090 | 39.19400 | 1453 ft | 156 kts | 92° |
| 2026-05-06 14:11 | -6.17335 | 39.20500 | 975 ft | 172 kts | 134° |
| 2026-05-06 14:11 | -6.18373 | 39.20929 | 807 ft | 145 kts | 147° |
| 2026-05-06 14:11 | -6.18918 | 39.21708 | 607 ft | 122 kts | 127° |
| 2026-05-06 14:11 | -6.19571 | 39.22105 | 374 ft | 104 kts | 156° |
| 2026-05-06 14:12 | -6.20292 | 39.22271 | 171 ft | 116 kts | 171° |
| 2026-05-06 14:12 | -6.21118 | 39.22372 | 144 ft | 121 kts | 171° |
| 2026-05-06 14:12 | -6.21934 | 39.22464 | 65 ft | 107 kts | 169° |
| 2026-05-06 14:12 | -6.22448 | 39.22535 | 51 ft | 30 kts | 179° |
| 2026-05-06 14:13 | -6.22514 | 39.22536 | 50 ft | 1 kts | 180° |
| 2026-05-06 14:13 | -6.22628 | 39.22543 | 51 ft | 32 kts | 175° |
| 2026-05-06 14:13 | -6.22819 | 39.22560 | 53 ft | 19 kts | 175° |
| 2026-05-06 14:13 | -6.22955 | 39.22563 | 49 ft | 18 kts | 194° |
| 2026-05-06 14:14 | -6.22992 | 39.22488 | 54 ft | 5 kts | 265° |
| 2026-05-06 14:14 | -6.22997 | 39.22378 | 53 ft | 1 kts | 308° |
| 2026-05-06 14:14 | -6.22922 | 39.22387 | 54 ft | 20 kts | 11° |
| 2026-05-06 14:14 | -6.22812 | 39.22380 | 54 ft | 16 kts | 353° |
| 2026-05-06 14:15 | -6.22718 | 39.22372 | 54 ft | 12 kts | 356° |
| 2026-05-06 14:15 | -6.22609 | 39.22360 | 53 ft | 18 kts | 354° |
| 2026-05-06 14:15 | -6.22485 | 39.22348 | 53 ft | 19 kts | 355° |
| 2026-05-06 14:15 | -6.22357 | 39.22337 | 54 ft | 17 kts | 354° |
| 2026-05-06 14:16 | -6.22240 | 39.22328 | 54 ft | 7 kts | 355° |
| 2026-05-06 14:16 | -6.22238 | 39.22328 | 54 ft | 0 kts | 355° |
| 2026-05-06 14:16 | -6.22237 | 39.22328 | 54 ft | 3 kts | 355° |
| 2026-05-06 14:16 | -6.22217 | 39.22324 | 54 ft | 0 kts | 349° |
| 2026-05-06 14:17 | -6.22174 | 39.22316 | 51 ft | 14 kts | 353° |
| 2026-05-06 14:17 | -6.22065 | 39.22306 | 54 ft | 15 kts | 354° |
| 2026-05-06 14:18 | -6.21970 | 39.22297 | 54 ft | 9 kts | 354° |
| 2026-05-06 14:18 | -6.21889 | 39.22290 | 53 ft | 8 kts | 355° |
| 2026-05-06 14:18 | -6.21854 | 39.22259 | 52 ft | 10 kts | 272° |
| 2026-05-06 14:18 | -6.21861 | 39.22207 | 52 ft | 6 kts | 264° |
| 2026-05-06 14:19 | -6.21861 | 39.22203 | 52 ft | 0 kts | 264° |